createdAt,value
2023-04-16T08:45:09.688Z,99.99
2023-04-16T12:03:05.063Z,97.00
2023-04-16T12:09:49.989Z,96.95
2023-04-16T12:41:20.882Z,96.14
2023-04-16T12:55:21.132Z,95.94
2023-04-16T12:55:23.082Z,95.43
2023-04-16T12:56:22.953Z,94.92
2023-04-16T12:57:22.903Z,94.71
2023-04-16T12:58:23.131Z,94.51
2023-04-16T12:59:22.850Z,94.51
2023-04-16T13:00:22.822Z,94.97
2023-04-16T13:01:23.360Z,94.81
2023-04-16T13:02:23.148Z,95.02
2023-04-16T13:03:22.858Z,94.60
2023-04-16T13:04:25.505Z,94.81
2023-04-16T13:05:23.682Z,94.92
2023-04-16T13:06:23.034Z,94.60
2023-04-16T13:07:22.698Z,94.51
2023-04-16T13:08:22.763Z,94.81
2023-04-16T13:09:22.802Z,95.28
2023-04-16T13:10:22.818Z,95.07
2023-04-16T13:11:22.760Z,95.07
2023-04-16T13:12:22.724Z,94.52
2023-04-16T13:13:22.710Z,94.82
2023-04-16T13:15:46.743Z,94.01
2023-04-16T13:15:48.709Z,93.85
2023-04-16T13:16:51.730Z,94.40
2023-04-16T13:17:50.694Z,94.30
2023-04-16T13:18:53.306Z,94.10
2023-04-16T13:19:48.578Z,93.48
2023-04-16T13:20:51.610Z,94.10
2023-04-16T13:21:56.123Z,94.10
2023-04-16T13:22:54.464Z,94.71
2023-04-16T13:23:53.692Z,94.40
2023-04-16T13:24:54.210Z,94.20
2023-04-16T13:25:50.734Z,93.85
2023-04-16T13:26:58.618Z,93.99
2023-04-16T13:28:09.479Z,94.30
2023-04-16T13:28:52.670Z,94.26
2023-04-16T13:29:55.360Z,93.85
2023-04-16T13:30:52.747Z,94.15
2023-04-16T13:33:12.772Z,94.15
2023-04-16T13:33:19.602Z,93.65
2023-04-16T13:37:11.974Z,94.46
2023-04-16T13:38:11.591Z,94.11
2023-04-16T13:39:08.908Z,94.01
2023-04-16T13:41:29.446Z,93.91
2023-04-16T13:41:43.970Z,93.91
2023-04-16T13:42:37.919Z,94.11
2023-04-16T13:43:45.399Z,94.11
2023-04-16T13:45:14.404Z,93.24
2023-04-16T13:45:33.861Z,93.44
2023-04-16T13:49:19.724Z,94.01
2023-04-16T13:50:16.041Z,94.01
2023-04-16T13:51:47.906Z,93.44
2023-04-16T13:58:23.855Z,92.93
2023-04-16T13:59:52.236Z,93.74
2023-04-16T14:01:16.140Z,93.95
2023-04-16T14:04:16.450Z,93.99
2023-04-16T14:04:27.847Z,94.10
2023-04-16T14:06:41.864Z,93.69
2023-04-16T14:06:44.486Z,93.84
2023-04-16T14:07:56.637Z,94.10
2023-04-16T14:08:55.477Z,94.20
2023-04-16T14:10:06.386Z,94.81
2023-04-16T14:26:15.325Z,94.90
2023-04-16T14:26:49.546Z,94.70
2023-04-16T14:27:49.483Z,94.90
2023-04-16T14:28:49.476Z,94.75
2023-04-16T14:29:49.502Z,94.70
2023-04-16T14:30:49.521Z,95.00
2023-04-16T14:31:49.567Z,94.80
2023-04-16T14:32:50.277Z,94.90
2023-04-16T14:33:49.410Z,95.31
2023-04-16T14:34:49.415Z,95.92
2023-04-16T14:35:49.440Z,94.90
2023-04-16T14:36:49.457Z,94.84
2023-04-16T14:37:49.401Z,94.95
2023-04-16T14:38:49.395Z,94.74
2023-04-16T14:39:49.438Z,94.74
2023-04-16T14:40:49.376Z,95.15
2023-04-16T14:41:49.387Z,95.56
2023-04-16T14:42:49.368Z,95.05
2023-04-16T14:43:49.350Z,95.05
2023-04-16T14:44:49.397Z,95.46
2023-04-16T14:45:49.292Z,95.46
2023-04-16T14:46:49.314Z,95.25
2023-04-16T14:47:49.822Z,95.05
2023-04-16T14:48:49.304Z,95.56
2023-04-16T14:49:49.193Z,95.56
2023-04-16T14:50:49.267Z,95.29
2023-04-16T14:51:49.210Z,95.29
2023-04-16T14:52:49.283Z,95.70
2023-04-16T14:53:49.228Z,96.12
2023-04-16T14:54:49.308Z,96.12
2023-04-16T14:55:49.224Z,96.32
2023-04-16T14:56:49.413Z,96.63
2023-04-16T14:57:49.174Z,95.91
2023-04-16T14:58:49.176Z,96.26
2023-04-16T14:59:49.159Z,96.47
2023-04-16T15:00:49.146Z,96.67
2023-04-16T15:01:49.265Z,96.57
2023-04-16T15:02:49.224Z,96.88
2023-04-16T15:03:49.697Z,96.57
2023-04-16T15:04:49.091Z,96.88
2023-04-16T15:05:49.082Z,97.19
2023-04-16T15:06:49.858Z,96.67
2023-04-16T15:07:49.130Z,96.88
2023-04-16T15:08:49.126Z,96.20
2023-04-16T15:09:49.065Z,96.47
2023-04-16T15:10:49.072Z,95.95
2023-04-16T15:11:49.037Z,96.67
2023-04-16T15:12:49.029Z,96.67
2023-04-16T15:13:49.062Z,96.67
2023-04-16T15:14:49.039Z,96.06
2023-04-16T15:15:49.050Z,96.06
2023-04-16T15:16:49.070Z,96.72
2023-04-16T15:17:48.992Z,96.47
2023-04-16T15:18:49.877Z,96.47
2023-04-16T15:19:48.970Z,96.47
2023-04-16T15:20:48.879Z,96.37
2023-04-16T15:21:49.440Z,96.57
2023-04-16T15:22:49.773Z,96.67
2023-04-16T15:29:41.279Z,96.37
2023-04-16T15:45:29.603Z,96.42
